createdAt,value
2023-03-26T00:01:26.356Z,13.80
2023-03-26T00:04:12.691Z,13.80
2023-03-26T00:06:58.097Z,13.80
2023-03-26T00:09:44.175Z,13.80
2023-03-26T00:12:29.870Z,13.80
2023-03-26T00:15:15.445Z,13.70
2023-03-26T00:18:01.539Z,13.60
2023-03-26T00:20:47.618Z,13.60
2023-03-26T00:23:36.130Z,13.40
2023-03-26T00:26:22.612Z,13.50
2023-03-26T00:29:09.968Z,13.40
2023-03-26T00:31:55.332Z,13.30
2023-03-26T00:34:41.528Z,13.10
2023-03-26T00:37:27.735Z,13.00
2023-03-26T00:40:13.651Z,12.90
2023-03-26T00:42:59.305Z,12.80
2023-03-26T00:45:46.171Z,12.80
2023-03-26T00:48:44.543Z,12.80
2023-03-26T00:51:31.647Z,12.80
2023-03-26T00:54:17.512Z,12.70
2023-03-26T00:57:06.897Z,12.70
2023-03-26T00:59:52.884Z,12.60
2023-03-26T01:02:38.519Z,12.50
2023-03-26T01:05:42.776Z,12.40
2023-03-26T01:08:31.596Z,12.50
2023-03-26T01:11:18.570Z,12.40
2023-03-26T01:14:13.082Z,12.30
2023-03-26T01:17:00.420Z,12.40
2023-03-26T01:19:50.199Z,12.40
2023-03-26T01:22:36.808Z,12.40
2023-03-26T01:25:23.281Z,12.50
2023-03-26T01:28:14.031Z,12.40
2023-03-26T01:31:06.343Z,12.40
2023-03-26T01:34:03.139Z,12.40
2023-03-26T01:37:04.781Z,12.20
2023-03-26T01:39:53.476Z,12.20
2023-03-26T01:42:45.483Z,11.90
2023-03-26T01:45:34.057Z,12.00
2023-03-26T01:48:19.914Z,11.90
2023-03-26T01:51:06.418Z,11.90
2023-03-26T01:53:52.626Z,11.90
2023-03-26T01:56:41.561Z,11.90
2023-03-26T01:59:30.530Z,12.00
2023-03-26T02:02:21.793Z,11.80
2023-03-26T02:05:25.002Z,11.70
2023-03-26T02:08:13.554Z,11.60
2023-03-26T02:10:59.567Z,11.60
2023-03-26T02:13:46.189Z,11.60
2023-03-26T02:16:32.075Z,11.60
2023-03-26T02:19:21.860Z,11.50
2023-03-26T02:22:11.228Z,11.60
2023-03-26T02:24:57.488Z,11.50
2023-03-26T02:27:43.708Z,11.50
2023-03-26T02:30:33.683Z,11.40
2023-03-26T02:33:21.679Z,11.40
2023-03-26T02:36:08.620Z,11.30
2023-03-26T02:38:55.851Z,11.30
2023-03-26T02:41:41.683Z,11.30
2023-03-26T02:44:29.697Z,11.30
2023-03-26T02:47:18.141Z,11.20
2023-03-26T02:50:13.039Z,11.10
2023-03-26T02:53:17.896Z,11.00
2023-03-26T02:56:09.018Z,10.90
2023-03-26T02:59:03.305Z,11.00
2023-03-26T03:01:48.843Z,11.00
2023-03-26T03:04:37.230Z,10.90
2023-03-26T03:07:24.454Z,10.80
2023-03-26T03:10:13.868Z,10.90
2023-03-26T03:13:29.142Z,11.00
2023-03-26T03:16:14.817Z,11.00
2023-03-26T03:19:01.968Z,11.10
2023-03-26T03:21:57.494Z,11.10
2023-03-26T03:24:45.682Z,11.00
2023-03-26T03:27:31.479Z,10.90
2023-03-26T03:30:25.984Z,10.80
2023-03-26T03:33:32.191Z,10.70
2023-03-26T03:36:20.922Z,10.70
2023-03-26T03:39:16.263Z,10.70
2023-03-26T03:42:02.445Z,10.60
2023-03-26T03:44:48.076Z,10.60
2023-03-26T03:47:56.417Z,10.60
2023-03-26T03:50:49.588Z,10.70
2023-03-26T03:53:46.032Z,10.70
2023-03-26T03:56:32.277Z,10.70
2023-03-26T03:59:48.062Z,10.70
2023-03-26T04:02:35.957Z,10.70
2023-03-26T04:05:24.772Z,10.60
2023-03-26T04:08:10.896Z,10.70
2023-03-26T04:11:06.416Z,10.60
2023-03-26T04:14:11.280Z,10.60
2023-03-26T04:17:13.486Z,10.60
2023-03-26T04:20:10.685Z,10.60
2023-03-26T04:22:56.367Z,10.60
2023-03-26T04:25:48.505Z,10.60
2023-03-26T04:28:43.446Z,10.60
2023-03-26T04:31:36.374Z,10.60
2023-03-26T04:34:25.759Z,10.50
2023-03-26T04:37:25.012Z,10.60
2023-03-26T04:40:22.598Z,10.60
2023-03-26T04:43:21.118Z,10.60
2023-03-26T04:46:45.922Z,10.60
2023-03-26T04:49:38.239Z,10.50
2023-03-26T04:52:24.217Z,10.50
2023-03-26T04:55:39.159Z,10.40
2023-03-26T04:58:33.833Z,10.40
2023-03-26T05:01:21.686Z,10.30
2023-03-26T05:04:07.296Z,10.30
2023-03-26T05:06:53.648Z,10.20
2023-03-26T05:09:46.255Z,10.20
2023-03-26T05:12:42.282Z,10.10
2023-03-26T05:15:32.708Z,10.10
2023-03-26T05:18:27.187Z,10.10
2023-03-26T05:21:12.849Z,10.10
2023-03-26T05:23:59.457Z,10.10
2023-03-26T05:26:44.898Z,10.00
2023-03-26T05:29:32.086Z,9.90
2023-03-26T05:32:18.004Z,10.00
2023-03-26T05:35:05.790Z,10.00
2023-03-26T05:37:51.571Z,10.00
2023-03-26T05:40:40.863Z,9.80
2023-03-26T05:43:28.352Z,9.70
2023-03-26T05:46:36.400Z,9.80
2023-03-26T05:49:22.558Z,10.40
2023-03-26T05:52:08.350Z,10.70
2023-03-26T05:55:18.522Z,11.20
2023-03-26T05:58:23.282Z,11.60
2023-03-26T06:01:17.122Z,11.60
2023-03-26T06:04:42.842Z,11.50
2023-03-26T06:07:49.454Z,11.60
2023-03-26T06:10:39.213Z,11.60
2023-03-26T06:13:25.308Z,11.80
2023-03-26T06:16:27.039Z,11.80
2023-03-26T06:19:33.631Z,11.60
2023-03-26T06:22:28.630Z,11.60
2023-03-26T06:25:34.497Z,11.50
2023-03-26T06:28:27.036Z,11.50
2023-03-26T06:31:31.900Z,11.20
2023-03-26T06:34:49.654Z,11.30
2023-03-26T06:37:35.383Z,11.60
2023-03-26T06:40:21.558Z,11.90
2023-03-26T06:43:21.890Z,12.00
2023-03-26T06:46:26.529Z,12.40
2023-03-26T06:49:31.104Z,12.10
2023-03-26T06:52:46.090Z,11.90
2023-03-26T06:56:10.005Z,12.10
2023-03-26T06:59:14.309Z,12.40
2023-03-26T07:02:18.731Z,12.70
2023-03-26T07:05:23.144Z,13.10
2023-03-26T07:08:27.567Z,13.00
2023-03-26T07:11:51.372Z,12.80
2023-03-26T07:14:57.890Z,12.70
2023-03-26T07:18:02.071Z,12.60
2023-03-26T07:20:51.538Z,12.50
2023-03-26T07:23:39.447Z,12.40
2023-03-26T07:26:55.842Z,12.30
2023-03-26T07:29:46.333Z,12.40
2023-03-26T07:32:58.776Z,12.50
2023-03-26T07:36:17.436Z,12.60
2023-03-26T07:39:37.855Z,12.50
2023-03-26T07:42:50.484Z,12.60
2023-03-26T07:45:54.970Z,12.70
2023-03-26T07:49:04.657Z,12.60
2023-03-26T07:52:11.158Z,12.80
2023-03-26T07:55:16.337Z,12.90
2023-03-26T07:58:39.551Z,13.10
2023-03-26T08:01:46.710Z,13.30
2023-03-26T08:04:38.154Z,13.40
2023-03-26T08:07:51.659Z,13.40
2023-03-26T08:10:51.610Z,13.00
2023-03-26T08:13:45.319Z,13.00
2023-03-26T08:16:42.192Z,13.10
2023-03-26T08:19:27.428Z,12.90
2023-03-26T08:22:16.889Z,12.80
2023-03-26T08:25:02.399Z,12.80
2023-03-26T08:27:54.111Z,12.90
2023-03-26T08:30:39.978Z,12.80
2023-03-26T08:33:27.425Z,13.00
2023-03-26T08:36:13.050Z,13.70
2023-03-26T08:38:59.671Z,13.50
2023-03-26T08:41:51.897Z,13.50
2023-03-26T08:44:41.493Z,13.70
2023-03-26T08:47:33.293Z,13.90
2023-03-26T08:50:38.235Z,14.10
2023-03-26T08:53:23.763Z,14.30
2023-03-26T08:56:17.224Z,14.50
2023-03-26T08:59:15.475Z,14.60
2023-03-26T09:02:07.706Z,14.70
2023-03-26T09:04:56.808Z,15.10
2023-03-26T09:07:54.287Z,14.80
2023-03-26T09:10:46.507Z,14.80
2023-03-26T09:13:31.913Z,14.80
2023-03-26T09:16:36.352Z,14.80
2023-03-26T09:19:32.726Z,14.80
2023-03-26T09:22:30.734Z,14.80
2023-03-26T09:25:28.672Z,14.80
2023-03-26T09:28:19.290Z,14.80
2023-03-26T09:31:23.724Z,14.80
2023-03-26T09:34:24.742Z,15.10
2023-03-26T09:37:23.803Z,15.30
2023-03-26T09:40:20.252Z,15.50
2023-03-26T09:43:19.507Z,15.60
2023-03-26T09:46:37.792Z,15.50
2023-03-26T09:49:41.740Z,15.50
2023-03-26T09:52:52.106Z,15.40
2023-03-26T09:55:45.335Z,15.50
2023-03-26T09:58:49.488Z,15.60
2023-03-26T10:01:47.790Z,15.40
2023-03-26T10:04:38.833Z,15.30
2023-03-26T10:07:30.166Z,15.20
2023-03-26T10:10:22.802Z,15.30
2023-03-26T10:13:14.019Z,15.40
2023-03-26T10:16:07.069Z,15.70
2023-03-26T10:18:56.127Z,16.00
2023-03-26T10:22:00.924Z,16.40
2023-03-26T10:24:46.979Z,16.30
2023-03-26T10:27:39.155Z,16.20
2023-03-26T10:30:25.490Z,16.20
2023-03-26T10:33:14.233Z,16.10
2023-03-26T10:36:19.902Z,16.10
2023-03-26T10:39:12.047Z,16.40
2023-03-26T10:42:28.893Z,16.40
2023-03-26T10:45:21.518Z,16.30
2023-03-26T10:48:27.520Z,16.40
2023-03-26T10:51:25.225Z,16.50
2023-03-26T10:54:26.098Z,16.80
2023-03-26T10:57:20.026Z,17.00
2023-03-26T11:00:14.691Z,17.30
2023-03-26T11:03:03.301Z,17.60
2023-03-26T11:06:16.742Z,17.80
2023-03-26T11:09:14.666Z,17.90
2023-03-26T11:12:26.321Z,17.90
2023-03-26T11:15:12.387Z,18.20
2023-03-26T11:18:07.180Z,18.40
2023-03-26T11:20:56.796Z,18.80
2023-03-26T11:24:21.417Z,19.10
2023-03-26T11:27:27.676Z,19.40
2023-03-26T11:30:41.047Z,19.50
2023-03-26T11:33:37.314Z,19.60
2023-03-26T11:36:37.809Z,19.80
2023-03-26T11:39:24.560Z,19.70
2023-03-26T11:42:11.316Z,19.60
2023-03-26T11:45:04.597Z,19.40
2023-03-26T11:47:59.297Z,19.30
2023-03-26T11:50:47.890Z,19.00
2023-03-26T11:53:34.818Z,18.70
2023-03-26T11:56:41.218Z,18.70
2023-03-26T11:59:57.341Z,19.00
2023-03-26T12:02:44.722Z,19.30
2023-03-26T12:05:34.246Z,19.60
2023-03-26T12:08:29.146Z,19.80
2023-03-26T12:11:19.153Z,19.90
2023-03-26T12:14:05.518Z,19.80
2023-03-26T12:17:02.135Z,19.80
2023-03-26T12:19:49.055Z,19.60
2023-03-26T12:22:36.336Z,19.40
2023-03-26T12:25:22.925Z,19.40
2023-03-26T12:28:15.597Z,19.30
2023-03-26T12:31:02.953Z,19.30
2023-03-26T12:34:07.620Z,19.30
2023-03-26T12:36:55.403Z,19.30
2023-03-26T12:40:06.646Z,19.30
2023-03-26T12:44:47.905Z,19.30
2023-03-26T12:47:54.537Z,19.20
2023-03-26T12:49:11.597Z,19.00
2023-03-26T12:52:07.639Z,19.00
2023-03-26T12:54:57.094Z,18.90
2023-03-26T12:57:57.779Z,18.90
2023-03-26T13:00:51.478Z,19.00
2023-03-26T13:03:38.777Z,19.00
2023-03-26T13:06:59.771Z,19.00
2023-03-26T13:09:57.463Z,18.90
2023-03-26T13:12:46.247Z,18.90
2023-03-26T13:18:54.939Z,18.70
2023-03-26T13:21:46.845Z,18.60
2023-03-26T13:25:04.041Z,18.50
2023-03-26T13:28:08.520Z,18.40
2023-03-26T13:30:57.120Z,18.40
2023-03-26T13:33:49.259Z,18.30
2023-03-26T13:36:37.973Z,18.20
2023-03-26T13:39:34.500Z,18.20
2023-03-26T13:42:37.673Z,19.20
2023-03-26T13:45:33.953Z,18.10
2023-03-26T13:48:22.985Z,18.10
2023-03-26T13:51:31.128Z,18.10
2023-03-26T13:54:21.542Z,18.10
2023-03-26T13:57:37.352Z,18.20
2023-03-26T14:00:27.564Z,18.20
2023-03-26T14:03:20.772Z,18.20
2023-03-26T14:06:28.844Z,18.20
2023-03-26T14:09:25.137Z,18.20
2023-03-26T14:12:24.387Z,18.10
2023-03-26T14:15:36.484Z,18.10
2023-03-26T14:18:27.804Z,18.00
2023-03-26T14:21:25.766Z,18.00
2023-03-26T14:24:14.463Z,17.80
2023-03-26T14:27:14.249Z,17.80
2023-03-26T14:30:12.393Z,17.70
2023-03-26T14:33:27.232Z,17.50
2023-03-26T14:36:25.331Z,17.30
2023-03-26T14:39:32.084Z,17.10
2023-03-26T14:42:29.356Z,16.90
2023-03-26T14:45:54.091Z,16.70
2023-03-26T14:48:45.715Z,16.60
2023-03-26T14:51:36.931Z,16.40
2023-03-26T14:54:27.282Z,16.30
2023-03-26T14:57:48.095Z,16.10
2023-03-26T15:00:52.643Z,16.00
2023-03-26T15:04:08.118Z,15.80
2023-03-26T15:07:02.791Z,15.70
2023-03-26T15:10:05.979Z,15.50
2023-03-26T15:13:07.009Z,15.40
2023-03-26T15:16:11.946Z,15.40
2023-03-26T15:19:10.000Z,15.30
2023-03-26T15:22:12.777Z,15.30
2023-03-26T15:24:58.432Z,15.10
2023-03-26T15:27:57.547Z,15.10
2023-03-26T15:30:46.129Z,14.90
2023-03-26T15:33:39.960Z,14.80
2023-03-26T15:36:38.612Z,14.80
2023-03-26T15:39:58.729Z,14.70
2023-03-26T15:42:51.632Z,14.70
2023-03-26T15:45:37.810Z,14.80
2023-03-26T15:48:34.302Z,14.50
2023-03-26T15:51:28.726Z,14.50
2023-03-26T15:54:29.489Z,14.30
2023-03-26T15:57:23.453Z,14.20
2023-03-26T16:00:23.235Z,14.10
2023-03-26T16:03:11.760Z,14.10
2023-03-26T16:06:18.824Z,14.00
2023-03-26T16:09:16.482Z,13.90
2023-03-26T16:12:17.261Z,13.80
2023-03-26T16:15:06.058Z,13.80
2023-03-26T16:18:11.720Z,13.70
2023-03-26T16:21:04.508Z,13.70
2023-03-26T16:23:53.685Z,13.60
2023-03-26T16:26:51.387Z,13.50
2023-03-26T16:30:09.953Z,13.50
2023-03-26T16:33:08.962Z,13.50
2023-03-26T16:36:39.097Z,13.50
2023-03-26T16:39:37.591Z,13.40
2023-03-26T16:42:30.417Z,13.40
2023-03-26T16:45:29.851Z,13.40
2023-03-26T16:48:33.856Z,13.40
2023-03-26T16:51:42.877Z,13.30
2023-03-26T16:54:47.598Z,13.30
2023-03-26T16:58:08.929Z,13.30
2023-03-26T17:01:07.682Z,13.20
2023-03-26T17:04:12.920Z,13.20
2023-03-26T17:07:01.690Z,13.20
2023-03-26T17:09:51.881Z,13.20
2023-03-26T17:12:46.426Z,13.00
2023-03-26T17:16:11.208Z,12.90
2023-03-26T17:19:04.368Z,12.80
2023-03-26T17:21:50.460Z,12.80
2023-03-26T17:24:51.956Z,12.80
2023-03-26T17:27:59.835Z,12.70
2023-03-26T17:30:51.961Z,12.80
2023-03-26T17:33:39.248Z,12.90
2023-03-26T17:36:30.774Z,12.80
2023-03-26T17:39:40.049Z,12.80
2023-03-26T17:42:26.251Z,12.80
2023-03-26T17:45:17.657Z,12.90
2023-03-26T17:48:06.565Z,12.90
2023-03-26T17:50:55.587Z,12.90
2023-03-26T18:02:04.042Z,12.80
2023-03-26T18:04:51.696Z,12.70
2023-03-26T18:07:41.886Z,12.70
2023-03-26T18:10:33.130Z,12.70
2023-03-26T18:13:37.683Z,12.60
2023-03-26T18:16:42.277Z,12.60
2023-03-26T18:19:28.612Z,12.60
2023-03-26T18:22:28.442Z,12.50
2023-03-26T18:25:22.750Z,12.50
2023-03-26T18:28:11.627Z,12.60
2023-03-26T18:31:06.646Z,12.50
2023-03-26T18:33:59.321Z,12.50
2023-03-26T18:37:04.623Z,12.50
2023-03-26T18:39:59.047Z,12.40
2023-03-26T18:42:49.039Z,12.40
2023-03-26T18:45:36.412Z,12.40
2023-03-26T18:48:23.447Z,12.40
2023-03-26T18:51:09.939Z,12.40
2023-03-26T18:53:57.028Z,12.40
2023-03-26T18:56:43.405Z,12.30
2023-03-26T18:59:32.106Z,12.30
2023-03-26T19:02:18.382Z,12.20
2023-03-26T19:05:04.093Z,12.20
2023-03-26T19:07:49.939Z,12.20
2023-03-26T19:10:36.661Z,12.20
2023-03-26T19:13:23.078Z,12.20
2023-03-26T19:16:15.180Z,12.20
2023-03-26T19:19:05.259Z,12.20
2023-03-26T19:21:51.539Z,12.20
2023-03-26T19:24:38.813Z,12.30
2023-03-26T19:27:26.150Z,12.30
2023-03-26T19:30:18.417Z,12.30
2023-03-26T19:33:12.150Z,12.30
2023-03-26T19:36:25.709Z,12.40
2023-03-26T19:39:12.794Z,12.50
2023-03-26T19:41:58.696Z,12.60
2023-03-26T19:44:44.524Z,12.60
2023-03-26T19:47:48.648Z,12.70
2023-03-26T19:50:42.196Z,12.70
2023-03-26T19:53:33.039Z,12.70
2023-03-26T19:56:19.681Z,12.70
2023-03-26T19:59:05.252Z,12.60
2023-03-26T20:01:51.007Z,12.70
2023-03-26T20:04:36.855Z,12.60
2023-03-26T20:07:35.284Z,12.60
2023-03-26T20:10:22.523Z,12.60
2023-03-26T20:13:17.276Z,12.60
2023-03-26T20:16:15.987Z,12.50
2023-03-26T20:19:05.133Z,12.50
2023-03-26T20:21:52.749Z,12.50
2023-03-26T20:24:38.960Z,12.50
2023-03-26T20:27:24.511Z,12.40
2023-03-26T20:30:12.102Z,12.40
2023-03-26T20:33:11.793Z,12.50
2023-03-26T20:35:59.433Z,12.50
2023-03-26T20:38:46.159Z,12.60
2023-03-26T20:41:31.730Z,12.60
2023-03-26T20:44:19.013Z,12.60
2023-03-26T20:47:04.707Z,12.60
2023-03-26T20:49:52.487Z,12.60
2023-03-26T20:52:38.499Z,12.60
2023-03-26T20:55:24.485Z,12.50
2023-03-26T20:58:14.937Z,12.60
2023-03-26T21:01:01.635Z,12.50
2023-03-26T21:03:47.316Z,12.50
2023-03-26T21:06:32.759Z,12.60
2023-03-26T21:09:23.535Z,12.60
2023-03-26T21:12:16.853Z,12.70
2023-03-26T21:15:09.961Z,12.70
2023-03-26T21:17:59.651Z,12.70
2023-03-26T21:20:47.236Z,12.70
2023-03-26T21:23:39.277Z,12.70
2023-03-26T21:26:29.782Z,12.70
2023-03-26T21:29:16.033Z,12.60
2023-03-26T21:32:01.446Z,12.60
2023-03-26T21:34:57.561Z,12.40
2023-03-26T21:37:45.632Z,12.40
2023-03-26T21:40:31.726Z,12.20
2023-03-26T21:43:18.366Z,12.20
2023-03-26T21:46:04.519Z,12.10
2023-03-26T21:48:50.039Z,12.10
2023-03-26T21:51:35.972Z,12.10
2023-03-26T21:54:25.990Z,12.00
2023-03-26T21:57:30.366Z,12.00
2023-03-26T22:00:23.673Z,12.00
2023-03-26T22:03:11.609Z,11.90
2023-03-26T22:05:57.558Z,11.90
2023-03-26T22:08:43.314Z,11.90
2023-03-26T22:11:29.277Z,11.80
2023-03-26T22:14:14.988Z,11.80
2023-03-26T22:17:00.540Z,11.80
2023-03-26T22:19:46.373Z,11.70
2023-03-26T22:22:31.770Z,11.70
2023-03-26T22:25:18.140Z,11.60
2023-03-26T22:28:04.448Z,11.50
2023-03-26T22:30:49.822Z,11.50
2023-03-26T22:33:36.394Z,11.50
2023-03-26T22:36:23.746Z,11.50
2023-03-26T22:39:09.590Z,11.70
2023-03-26T22:41:55.512Z,11.50
2023-03-26T22:44:41.273Z,11.20
2023-03-26T22:47:26.904Z,11.00
2023-03-26T22:50:12.325Z,11.00
2023-03-26T22:52:58.050Z,11.10
2023-03-26T22:55:43.884Z,10.90
2023-03-26T22:58:30.147Z,10.90
2023-03-26T23:01:18.082Z,10.90
2023-03-26T23:04:03.661Z,10.80
2023-03-26T23:06:49.223Z,10.80
2023-03-26T23:09:34.910Z,10.70
2023-03-26T23:12:20.768Z,10.70
2023-03-26T23:15:06.733Z,10.70
2023-03-26T23:17:54.801Z,10.70
2023-03-26T23:20:42.813Z,10.70
2023-03-26T23:23:30.111Z,10.70
2023-03-26T23:26:16.301Z,10.70
2023-03-26T23:29:02.358Z,10.70
2023-03-26T23:31:47.781Z,10.70
2023-03-26T23:34:34.157Z,10.60
2023-03-26T23:37:23.350Z,10.70
2023-03-26T23:40:10.485Z,10.60
2023-03-26T23:42:55.986Z,10.60
2023-03-26T23:45:43.534Z,10.50
2023-03-26T23:48:29.693Z,10.50
2023-03-26T23:51:16.666Z,10.40
2023-03-26T23:54:02.767Z,10.40
2023-03-26T23:56:49.112Z,10.40
2023-03-26T23:59:35.680Z,10.40
